createdAt,value
2023-01-04T00:00:19.112Z,97.04
2023-01-04T00:02:49.624Z,97.47
2023-01-04T00:05:20.457Z,98.24
2023-01-04T00:07:50.915Z,97.90
2023-01-04T00:10:21.539Z,97.50
2023-01-04T00:12:52.438Z,98.15
2023-01-04T00:15:23.170Z,97.74
2023-01-04T00:17:54.591Z,97.63
2023-01-04T00:20:23.446Z,98.60
2023-01-04T00:22:53.974Z,99.90
2023-01-04T00:25:24.354Z,100.00
2023-01-04T00:27:55.173Z,99.98
2023-01-04T00:30:25.816Z,100.00
2023-01-04T00:32:57.897Z,100.00
2023-01-04T00:35:45.205Z,100.00
2023-01-04T00:38:18.921Z,100.00
2023-01-04T00:40:51.805Z,100.00
2023-01-04T00:43:23.474Z,100.00
2023-01-04T00:45:54.419Z,100.00
2023-01-04T00:48:26.999Z,100.00
2023-01-04T00:50:57.997Z,100.00
2023-01-04T00:53:28.448Z,100.00
2023-01-04T00:56:02.852Z,100.00
2023-01-04T00:58:33.187Z,100.00
2023-01-04T01:01:08.746Z,100.00
2023-01-04T01:03:44.700Z,100.00
2023-01-04T01:06:15.175Z,100.00
2023-01-04T01:08:46.704Z,100.00
2023-01-04T01:11:17.990Z,100.00
2023-01-04T01:13:49.223Z,100.00
2023-01-04T01:16:51.644Z,100.00
2023-01-04T01:19:15.409Z,100.00
2023-01-04T01:21:49.516Z,100.00
2023-01-04T01:24:21.792Z,100.00
2023-01-04T01:26:53.653Z,100.00
2023-01-04T01:29:24.235Z,100.00
2023-01-04T01:31:54.839Z,100.00
2023-01-04T01:34:25.333Z,100.00
2023-01-04T01:36:55.992Z,100.00
2023-01-04T01:39:26.483Z,100.00
2023-01-04T01:41:56.906Z,100.00
2023-01-04T01:45:00.504Z,100.00
2023-01-04T01:47:38.754Z,100.00
2023-01-04T01:50:21.547Z,100.00
2023-01-04T01:52:53.157Z,100.00
2023-01-04T01:55:24.373Z,100.00
2023-01-04T01:57:56.664Z,100.00
2023-01-04T02:00:28.371Z,100.00
2023-01-04T02:03:11.804Z,100.00
2023-01-04T02:05:43.476Z,100.00
2023-01-04T02:08:15.830Z,100.00
2023-01-04T02:10:46.244Z,100.00
2023-01-04T02:13:19.566Z,99.97
2023-01-04T02:16:07.334Z,99.89
2023-01-04T02:18:49.322Z,99.68
2023-01-04T02:21:25.731Z,99.42
2023-01-04T02:24:30.055Z,99.18
2023-01-04T02:27:37.247Z,99.08
2023-01-04T02:30:38.650Z,99.15
2023-01-04T02:33:28.597Z,99.13
2023-01-04T02:36:12.512Z,99.25
2023-01-04T02:38:53.882Z,99.15
2023-01-04T02:41:30.271Z,99.12
2023-01-04T02:44:24.306Z,99.05
2023-01-04T02:47:00.356Z,99.13
2023-01-04T02:49:48.394Z,99.02
2023-01-04T02:52:19.143Z,98.88
2023-01-04T02:54:52.024Z,98.83
2023-01-04T02:57:33.970Z,98.37
2023-01-04T03:00:27.132Z,98.32
2023-01-04T03:03:36.076Z,98.33
2023-01-04T03:06:17.527Z,98.59
2023-01-04T03:08:58.145Z,98.91
2023-01-04T03:11:55.629Z,99.06
2023-01-04T03:14:31.833Z,99.50
2023-01-04T03:17:07.287Z,99.45
2023-01-04T03:19:55.926Z,99.39
2023-01-04T03:22:52.544Z,99.23
2023-01-04T03:25:45.997Z,99.41
2023-01-04T03:28:37.182Z,99.26
2023-01-04T03:31:31.259Z,98.89
2023-01-04T03:34:19.448Z,98.61
2023-01-04T03:37:06.175Z,98.34
2023-01-04T03:40:03.035Z,98.08
2023-01-04T03:43:08.552Z,97.93
2023-01-04T03:46:04.179Z,97.28
2023-01-04T03:48:43.091Z,96.46
2023-01-04T03:51:16.960Z,95.72
2023-01-04T03:53:56.435Z,95.28
2023-01-04T03:56:29.322Z,94.98
2023-01-04T03:59:00.443Z,94.48
2023-01-04T04:01:32.051Z,94.08
2023-01-04T04:04:20.660Z,93.64
2023-01-04T04:07:08.602Z,93.47
2023-01-04T04:09:38.954Z,93.05
2023-01-04T04:12:09.676Z,92.87
2023-01-04T04:14:40.081Z,92.82
2023-01-04T04:17:10.496Z,92.75
2023-01-04T04:19:41.370Z,92.72
2023-01-04T04:22:11.858Z,92.73
2023-01-04T04:24:42.266Z,92.26
2023-01-04T04:27:12.654Z,92.54
2023-01-04T04:29:43.201Z,92.57
2023-01-04T04:32:13.681Z,92.19
2023-01-04T04:34:44.155Z,92.09
2023-01-04T04:37:14.637Z,92.24
2023-01-04T04:39:45.011Z,92.89
2023-01-04T04:42:15.439Z,93.51
2023-01-04T04:44:45.902Z,94.09
2023-01-04T04:47:16.264Z,94.20
2023-01-04T04:49:46.733Z,94.66
2023-01-04T04:52:17.156Z,95.45
2023-01-04T04:54:47.488Z,96.01
2023-01-04T04:57:17.896Z,97.50
2023-01-04T04:59:48.396Z,98.36
2023-01-04T05:02:19.049Z,99.82
2023-01-04T05:04:49.726Z,99.87
2023-01-04T05:07:20.188Z,100.00
2023-01-04T05:09:50.686Z,100.00
2023-01-04T05:12:38.676Z,100.00
2023-01-04T05:15:10.577Z,100.00
2023-01-04T05:17:40.983Z,100.00
2023-01-04T05:20:12.734Z,100.00
2023-01-04T05:22:43.800Z,100.00
2023-01-04T05:25:14.378Z,100.00
2023-01-04T05:27:44.803Z,100.00
2023-01-04T05:30:34.015Z,100.00
2023-01-04T05:33:05.499Z,100.00
2023-01-04T05:35:36.089Z,100.00
2023-01-04T05:38:06.780Z,100.00
2023-01-04T05:40:37.242Z,100.00
2023-01-04T05:43:07.697Z,100.00
2023-01-04T05:45:38.462Z,100.00
2023-01-04T05:48:09.251Z,100.00
2023-01-04T05:50:39.845Z,100.00
2023-01-04T05:53:11.711Z,100.00
2023-01-04T05:55:42.152Z,100.00
2023-01-04T05:58:12.790Z,100.00
2023-01-04T06:00:43.144Z,100.00
2023-01-04T06:03:13.749Z,100.00
2023-01-04T06:05:44.483Z,100.00
2023-01-04T06:08:17.714Z,100.00
2023-01-04T06:10:53.006Z,100.00
2023-01-04T06:13:23.677Z,100.00
2023-01-04T06:15:54.277Z,100.00
2023-01-04T06:18:24.860Z,100.00
2023-01-04T06:20:55.347Z,100.00
2023-01-04T06:23:25.849Z,100.00
2023-01-04T06:25:56.265Z,100.00
2023-01-04T06:28:26.775Z,100.00
2023-01-04T06:30:57.331Z,100.00
2023-01-04T06:33:27.857Z,100.00
2023-01-04T06:35:58.643Z,100.00
2023-01-04T06:38:29.849Z,100.00
2023-01-04T06:41:00.383Z,100.00
2023-01-04T06:43:30.984Z,100.00
2023-01-04T06:46:01.853Z,100.00
2023-01-04T06:48:32.351Z,100.00
2023-01-04T06:51:02.844Z,100.00
2023-01-04T06:53:33.252Z,100.00
2023-01-04T06:56:03.669Z,100.00
2023-01-04T06:58:34.063Z,100.00
2023-01-04T07:01:05.129Z,100.00
2023-01-04T07:03:35.878Z,100.00
2023-01-04T07:06:08.832Z,100.00
2023-01-04T07:08:39.323Z,100.00
2023-01-04T07:11:09.903Z,100.00
2023-01-04T07:13:40.406Z,100.00
2023-01-04T07:16:11.176Z,100.00
2023-01-04T07:18:41.589Z,100.00
2023-01-04T07:21:12.124Z,100.00
2023-01-04T07:23:42.666Z,100.00
2023-01-04T07:26:13.156Z,100.00
2023-01-04T07:29:01.198Z,100.00
2023-01-04T07:31:31.799Z,100.00
2023-01-04T07:34:02.400Z,100.00
2023-01-04T07:36:32.930Z,100.00
2023-01-04T07:39:03.504Z,100.00
2023-01-04T07:41:33.984Z,100.00
2023-01-04T07:44:04.558Z,100.00
2023-01-04T07:46:35.362Z,100.00
2023-01-04T07:49:09.164Z,100.00
2023-01-04T07:51:43.903Z,100.00
2023-01-04T07:54:15.145Z,100.00
2023-01-04T07:56:45.914Z,100.00
2023-01-04T07:59:18.165Z,100.00
2023-01-04T08:01:51.004Z,100.00
2023-01-04T08:04:29.618Z,100.00
2023-01-04T08:07:01.714Z,100.00
2023-01-04T08:10:14.969Z,100.00
2023-01-04T08:12:33.021Z,100.00
2023-01-04T08:15:03.557Z,100.00
2023-01-04T08:17:34.126Z,100.00
2023-01-04T08:20:05.349Z,100.00
2023-01-04T08:22:47.179Z,100.00
2023-01-04T08:25:18.064Z,100.00
2023-01-04T08:27:48.774Z,100.00
2023-01-04T08:30:19.424Z,100.00
2023-01-04T08:32:50.605Z,100.00
2023-01-04T08:35:21.570Z,100.00
2023-01-04T08:37:52.065Z,100.00
2023-01-04T08:40:22.623Z,100.00
2023-01-04T08:43:13.109Z,100.00
2023-01-04T08:45:43.493Z,100.00
2023-01-04T08:48:15.448Z,100.00
2023-01-04T08:50:47.829Z,100.00
2023-01-04T08:53:18.302Z,100.00
2023-01-04T08:55:53.811Z,100.00
2023-01-04T08:58:24.772Z,100.00
2023-01-04T09:01:00.532Z,100.00
2023-01-04T09:03:31.751Z,100.00
2023-01-04T09:06:07.294Z,100.00
2023-01-04T09:08:39.199Z,100.00
2023-01-04T09:11:12.341Z,100.00
2023-01-04T09:13:43.906Z,99.99
2023-01-04T09:16:19.906Z,99.96
2023-01-04T09:18:50.968Z,99.86
2023-01-04T09:21:23.135Z,99.49
2023-01-04T09:23:53.756Z,99.23
2023-01-04T09:26:25.408Z,99.25
2023-01-04T09:28:58.074Z,99.41
2023-01-04T09:31:30.190Z,99.14
2023-01-04T09:34:16.616Z,98.94
2023-01-04T09:36:52.307Z,98.60
2023-01-04T09:39:24.489Z,98.76
2023-01-04T09:41:59.413Z,98.52
2023-01-04T09:47:39.954Z,98.41
2023-01-04T09:50:18.908Z,97.63
2023-01-04T09:53:04.107Z,97.66
2023-01-04T09:55:41.344Z,97.43
2023-01-04T09:58:33.743Z,96.96
2023-01-04T10:01:09.136Z,97.17
2023-01-04T10:03:50.941Z,97.01
2023-01-04T10:07:04.709Z,96.80
2023-01-04T10:09:46.493Z,96.05
2023-01-04T10:12:39.781Z,95.40
2023-01-04T10:15:23.460Z,95.51
2023-01-04T10:20:08.007Z,94.94
2023-01-04T10:21:33.697Z,94.85
2023-01-04T10:24:36.666Z,94.79
2023-01-04T10:27:16.168Z,94.31
2023-01-04T10:29:57.148Z,94.66
2023-01-04T10:32:39.363Z,94.09
2023-01-04T10:35:21.559Z,93.87
2023-01-04T10:37:55.106Z,93.99
2023-01-04T10:40:26.915Z,94.24
2023-01-04T10:43:04.314Z,94.62
2023-01-04T10:45:41.681Z,94.72
2023-01-04T10:48:17.097Z,94.75
2023-01-04T10:50:55.139Z,94.75
2023-01-04T10:53:31.774Z,95.28
2023-01-04T10:56:25.349Z,95.11
2023-01-04T10:59:04.461Z,95.49
2023-01-04T11:01:40.201Z,95.38
2023-01-04T11:04:19.892Z,95.88
2023-01-04T11:06:55.147Z,95.65
2023-01-04T11:09:30.122Z,95.54
2023-01-04T11:12:01.932Z,95.86
2023-01-04T11:14:37.284Z,95.85
2023-01-04T11:17:10.158Z,95.88
2023-01-04T11:19:41.953Z,95.93
2023-01-04T11:22:18.439Z,96.16
2023-01-04T11:25:34.559Z,96.40
2023-01-04T11:27:48.531Z,96.59
2023-01-04T11:30:23.927Z,96.51
2023-01-04T11:33:01.472Z,96.35
2023-01-04T11:35:43.860Z,96.69
2023-01-04T11:38:17.355Z,96.46
2023-01-04T11:41:00.279Z,96.80
2023-01-04T11:43:32.454Z,96.28
2023-01-04T11:46:06.618Z,96.30
2023-01-04T11:48:43.252Z,96.30
2023-01-04T11:51:34.128Z,96.53
2023-01-04T11:54:06.587Z,96.64
2023-01-04T11:56:37.768Z,96.54
2023-01-04T11:59:24.755Z,96.30
2023-01-04T12:02:42.182Z,95.96
2023-01-04T12:05:28.206Z,95.95
2023-01-04T12:08:00.817Z,95.91
2023-01-04T12:10:31.465Z,95.88
2023-01-04T12:13:02.959Z,95.79
2023-01-04T12:15:41.120Z,96.02
2023-01-04T12:18:18.042Z,96.18
2023-01-04T12:20:48.543Z,96.20
2023-01-04T12:23:20.532Z,96.09
2023-01-04T12:25:52.919Z,96.01
2023-01-04T12:28:35.958Z,96.12
2023-01-04T12:31:31.410Z,95.89
2023-01-04T12:34:16.268Z,95.55
2023-01-04T12:37:05.570Z,95.69
2023-01-04T12:39:43.484Z,95.80
2023-01-04T12:42:27.221Z,95.77
2023-01-04T12:45:22.582Z,95.48
2023-01-04T12:48:12.564Z,95.09
2023-01-04T12:51:42.701Z,95.16
2023-01-04T12:54:32.043Z,94.92
2023-01-04T12:57:28.316Z,95.17
2023-01-04T13:00:01.888Z,94.88
2023-01-04T13:02:33.869Z,95.09
2023-01-04T13:08:16.106Z,94.66
2023-01-04T13:10:51.467Z,94.79
2023-01-04T13:13:34.048Z,95.21
2023-01-04T13:16:24.436Z,94.69
2023-01-04T13:18:56.871Z,94.69
2023-01-04T13:21:32.232Z,95.28
2023-01-04T13:24:05.041Z,96.86
2023-01-04T13:26:42.871Z,97.82
2023-01-04T13:29:19.121Z,99.68
2023-01-04T13:31:59.721Z,100.00
2023-01-04T13:34:34.168Z,100.00
2023-01-04T13:37:19.389Z,100.00
2023-01-04T13:39:52.268Z,100.00
2023-01-04T13:42:28.176Z,100.00
2023-01-04T13:45:19.722Z,100.00
2023-01-04T13:47:53.255Z,100.00
2023-01-04T13:50:32.063Z,100.00
2023-01-04T13:53:07.485Z,100.00
2023-01-04T13:55:39.957Z,100.00
2023-01-04T13:58:57.232Z,100.00
2023-01-04T14:01:51.778Z,100.00
2023-01-04T14:04:46.646Z,100.00
2023-01-04T14:08:15.691Z,100.00
2023-01-04T14:15:33.863Z,100.00
2023-01-04T14:18:07.212Z,100.00
2023-01-04T14:20:51.971Z,100.00
2023-01-04T14:23:45.602Z,100.00
2023-01-04T14:27:10.970Z,100.00
2023-01-04T14:30:29.309Z,100.00
2023-01-04T14:33:19.242Z,100.00
2023-01-04T14:36:45.415Z,100.00
2023-01-04T14:42:59.903Z,100.00
2023-01-04T14:49:02.856Z,100.00
2023-01-04T14:51:38.232Z,100.00
2023-01-04T14:54:13.756Z,100.00
2023-01-04T14:56:47.474Z,100.00
2023-01-04T14:59:48.909Z,100.00
2023-01-04T15:02:34.296Z,100.00
2023-01-04T15:05:07.192Z,100.00
2023-01-04T15:07:47.406Z,100.00
2023-01-04T15:11:06.690Z,100.00
2023-01-04T15:13:56.481Z,100.00
2023-01-04T15:16:32.057Z,100.00
2023-01-04T15:19:15.182Z,100.00
2023-01-04T15:25:22.286Z,100.00
2023-01-04T15:28:21.535Z,100.00
2023-01-04T15:35:39.482Z,100.00
2023-01-04T15:38:41.127Z,100.00
2023-01-04T15:42:08.878Z,100.00
2023-01-04T15:45:05.295Z,100.00
2023-01-04T15:47:56.195Z,100.00
2023-01-04T15:50:30.085Z,100.00
2023-01-04T15:53:00.633Z,100.00
2023-01-04T15:55:36.075Z,100.00
2023-01-04T15:58:07.758Z,100.00
2023-01-04T16:00:38.785Z,100.00
2023-01-04T16:03:09.630Z,100.00
2023-01-04T16:05:40.426Z,100.00
2023-01-04T16:08:11.045Z,100.00
2023-01-04T16:10:41.564Z,100.00
2023-01-04T16:13:12.163Z,100.00
2023-01-04T16:15:42.687Z,100.00
2023-01-04T16:18:13.196Z,100.00
2023-01-04T16:20:44.618Z,100.00
2023-01-04T16:23:15.212Z,100.00
2023-01-04T16:25:46.794Z,100.00
2023-01-04T16:28:17.370Z,100.00
2023-01-04T16:30:55.926Z,100.00
2023-01-04T16:33:26.457Z,100.00
2023-01-04T16:36:03.991Z,100.00
2023-01-04T16:38:36.394Z,100.00
2023-01-04T16:41:09.201Z,100.00
2023-01-04T16:43:45.955Z,100.00
2023-01-04T16:46:27.957Z,100.00
2023-01-04T16:49:00.314Z,100.00
2023-01-04T16:51:34.184Z,100.00
2023-01-04T16:54:07.457Z,100.00
2023-01-04T16:56:38.897Z,100.00
2023-01-04T16:59:10.914Z,100.00
2023-01-04T17:01:49.880Z,100.00
2023-01-04T17:04:24.568Z,100.00
2023-01-04T17:06:58.482Z,100.00
2023-01-04T17:09:31.191Z,100.00
2023-01-04T17:12:36.749Z,100.00
2023-01-04T17:15:15.205Z,100.00
2023-01-04T17:17:43.676Z,100.00
2023-01-04T17:20:14.579Z,100.00
2023-01-04T17:22:45.050Z,100.00
2023-01-04T17:25:15.956Z,100.00
2023-01-04T17:27:46.389Z,100.00
2023-01-04T17:30:17.396Z,100.00
2023-01-04T17:32:47.814Z,100.00
2023-01-04T17:35:18.324Z,100.00
2023-01-04T17:37:48.752Z,100.00
2023-01-04T17:40:22.895Z,100.00
2023-01-04T17:42:53.990Z,100.00
2023-01-04T17:45:24.364Z,100.00
2023-01-04T17:47:55.384Z,100.00
2023-01-04T17:50:25.922Z,100.00
2023-01-04T17:52:58.352Z,100.00
2023-01-04T17:55:28.861Z,100.00
2023-01-04T17:58:00.223Z,100.00
2023-01-04T18:00:31.991Z,100.00
2023-01-04T18:03:02.381Z,100.00
2023-01-04T18:05:44.975Z,100.00
2023-01-04T18:08:22.979Z,100.00
2023-01-04T18:11:08.827Z,100.00
2023-01-04T18:16:24.284Z,100.00
2023-01-04T18:18:56.814Z,100.00
2023-01-04T18:21:30.684Z,100.00
2023-01-04T18:27:20.272Z,100.00
2023-01-04T18:29:45.218Z,100.00
2023-01-04T18:32:15.691Z,100.00
2023-01-04T18:34:46.199Z,100.00
2023-01-04T18:37:18.773Z,100.00
2023-01-04T18:39:49.388Z,100.00
2023-01-04T18:42:19.873Z,100.00
2023-01-04T18:44:50.380Z,100.00
2023-01-04T18:47:22.320Z,100.00
2023-01-04T18:49:53.135Z,100.00
2023-01-04T18:52:23.652Z,100.00
2023-01-04T18:54:54.169Z,100.00
2023-01-04T18:57:24.721Z,100.00
2023-01-04T18:59:55.175Z,100.00
2023-01-04T19:02:25.822Z,100.00
2023-01-04T19:04:56.556Z,100.00
2023-01-04T19:07:27.451Z,100.00
2023-01-04T19:09:57.957Z,100.00
2023-01-04T19:12:28.416Z,100.00
2023-01-04T19:14:59.026Z,100.00
2023-01-04T19:17:29.443Z,100.00
2023-01-04T19:19:59.839Z,100.00
2023-01-04T19:22:30.362Z,100.00
2023-01-04T19:25:00.713Z,100.00
2023-01-04T19:27:31.240Z,100.00
2023-01-04T19:30:01.848Z,100.00
2023-01-04T19:32:33.903Z,100.00
2023-01-04T19:35:04.855Z,100.00
2023-01-04T19:37:35.393Z,100.00
2023-01-04T19:40:06.709Z,100.00
2023-01-04T19:42:35.717Z,100.00
2023-01-04T19:45:07.508Z,100.00
2023-01-04T19:47:37.991Z,100.00
2023-01-04T19:50:10.051Z,100.00
2023-01-04T19:52:40.644Z,100.00
2023-01-04T19:55:11.925Z,100.00
2023-01-04T19:57:42.616Z,100.00
2023-01-04T20:00:15.575Z,100.00
2023-01-04T20:02:46.165Z,100.00
2023-01-04T20:05:17.191Z,100.00
2023-01-04T20:07:49.196Z,100.00
2023-01-04T20:10:19.949Z,100.00
2023-01-04T20:12:51.032Z,100.00
2023-01-04T20:15:24.602Z,100.00
2023-01-04T20:17:55.096Z,100.00
2023-01-04T20:20:25.631Z,100.00
2023-01-04T20:22:56.182Z,100.00
2023-01-04T20:25:26.695Z,100.00
2023-01-04T20:27:57.245Z,100.00
2023-01-04T20:30:27.878Z,100.00
2023-01-04T20:32:58.538Z,100.00
2023-01-04T20:35:29.122Z,100.00
2023-01-04T20:38:00.046Z,100.00
2023-01-04T20:40:30.644Z,100.00
2023-01-04T20:43:18.864Z,100.00
2023-01-04T20:45:50.245Z,100.00
2023-01-04T20:48:19.207Z,100.00
2023-01-04T20:50:49.868Z,100.00
2023-01-04T20:53:20.860Z,100.00
2023-01-04T20:55:51.484Z,100.00
2023-01-04T20:58:22.003Z,100.00
2023-01-04T21:00:52.424Z,100.00
2023-01-04T21:03:22.994Z,100.00
2023-01-04T21:05:53.550Z,100.00
2023-01-04T21:08:24.071Z,100.00
2023-01-04T21:10:54.647Z,100.00
2023-01-04T21:13:25.811Z,100.00
2023-01-04T21:15:56.842Z,100.00
2023-01-04T21:18:27.979Z,100.00
2023-01-04T21:20:58.682Z,100.00
2023-01-04T21:23:29.706Z,100.00
2023-01-04T21:26:00.278Z,100.00
2023-01-04T21:28:30.834Z,100.00
2023-01-04T21:31:01.449Z,100.00
2023-01-04T21:33:32.098Z,100.00
2023-01-04T21:36:09.316Z,100.00
2023-01-04T21:38:39.712Z,100.00
2023-01-04T21:41:15.739Z,100.00
2023-01-04T21:43:46.674Z,100.00
2023-01-04T21:46:17.500Z,100.00
2023-01-04T21:48:48.423Z,100.00
2023-01-04T21:51:19.035Z,100.00
2023-01-04T21:53:49.809Z,100.00
2023-01-04T21:56:22.183Z,100.00
2023-01-04T21:58:52.742Z,100.00
2023-01-04T22:01:30.984Z,100.00
2023-01-04T22:04:05.021Z,100.00
2023-01-04T22:06:38.538Z,100.00
2023-01-04T22:09:08.841Z,100.00
2023-01-04T22:11:40.956Z,100.00
2023-01-04T22:14:12.025Z,100.00
2023-01-04T22:16:43.215Z,100.00
2023-01-04T22:19:15.762Z,100.00
2023-01-04T22:21:46.287Z,100.00
2023-01-04T22:24:17.201Z,100.00
2023-01-04T22:26:49.303Z,100.00
2023-01-04T22:29:20.557Z,100.00
2023-01-04T22:31:49.935Z,100.00
2023-01-04T22:34:20.451Z,100.00
2023-01-04T22:36:50.961Z,100.00
2023-01-04T22:39:22.363Z,100.00
2023-01-04T22:41:52.871Z,100.00
2023-01-04T22:44:23.260Z,100.00
2023-01-04T22:46:53.858Z,100.00
2023-01-04T22:49:24.329Z,100.00
2023-01-04T22:51:56.178Z,100.00
2023-01-04T22:54:26.623Z,100.00
2023-01-04T22:56:57.378Z,100.00
2023-01-04T22:59:28.074Z,100.00
2023-01-04T23:01:58.595Z,100.00
2023-01-04T23:04:28.980Z,100.00
2023-01-04T23:06:59.383Z,100.00
2023-01-04T23:09:29.762Z,100.00
2023-01-04T23:12:00.263Z,100.00
2023-01-04T23:14:30.638Z,100.00
2023-01-04T23:17:01.405Z,100.00
2023-01-04T23:19:32.795Z,100.00
2023-01-04T23:22:01.750Z,100.00
2023-01-04T23:24:34.336Z,100.00
2023-01-04T23:27:04.827Z,100.00
2023-01-04T23:29:35.313Z,100.00
2023-01-04T23:32:06.075Z,100.00
2023-01-04T23:34:36.524Z,100.00
2023-01-04T23:37:07.058Z,100.00
2023-01-04T23:39:37.378Z,100.00
2023-01-04T23:42:08.574Z,100.00
2023-01-04T23:44:38.907Z,100.00
2023-01-04T23:47:09.945Z,100.00
2023-01-04T23:49:40.656Z,100.00
2023-01-04T23:52:11.690Z,100.00
2023-01-04T23:54:42.186Z,100.00
2023-01-04T23:57:12.613Z,100.00
2023-01-04T23:59:42.926Z,100.00
